Time;durP1;ratioP1;P1;durP2;ratioP2;P2;SDS_P1;SDS_P2;PMS_P1;PMS_P2;Temp;Humidity;BMP_temperature;BMP_pressure;BME280_temperature;BME280_humidity;BME280_pressure;Samples;Min_cycle;Max_cycle;Signal;HPM_P1;HPM_P2
2023/03/07 00:01:06;;;;;;;28.20;10.45;;;1.80;99.90;;;;;;5054445;28;20615;-52
2023/03/07 00:03:33;;;;;;;33.38;10.90;;;1.80;99.90;;;;;;5052126;28;20505;-51
2023/03/07 00:06:06;;;;;;;30.42;12.52;;;1.80;99.90;;;;;;5050754;28;20544;-53
2023/03/07 00:08:33;;;;;;;29.00;10.32;;;1.70;99.90;;;;;;5051523;28;20040;-51
2023/03/07 00:11:05;;;;;;;37.00;10.93;;;1.70;99.90;;;;;;5052613;28;20041;-52
2023/03/07 00:13:34;;;;;;;31.98;11.15;;;1.70;99.90;;;;;;5052634;28;20091;-51
2023/03/07 00:16:02;;;;;;;33.67;11.20;;;1.60;99.90;;;;;;5051782;28;20485;-52
2023/03/07 00:18:30;;;;;;;28.98;10.60;;;1.60;99.90;;;;;;5050807;28;20045;-55
2023/03/07 00:20:59;;;;;;;25.25;9.68;;;1.60;99.90;;;;;;5051720;28;20044;-54
2023/03/07 00:23:26;;;;;;;27.50;10.10;;;1.70;99.90;;;;;;5066628;28;20033;-51
2023/03/07 00:26:07;;;;;;;26.92;10.88;;;1.70;99.90;;;;;;5057690;28;20551;-52
2023/03/07 00:28:35;;;;;;;28.85;9.95;;;1.70;99.90;;;;;;5039193;28;20037;-50
2023/03/07 00:31:04;;;;;;;29.95;10.05;;;1.70;99.90;;;;;;5051156;28;20416;-55
2023/03/07 00:33:31;;;;;;;21.88;9.35;;;1.60;99.90;;;;;;5034265;28;20040;-53
2023/03/07 00:36:03;;;;;;;29.08;9.75;;;1.50;99.90;;;;;;5066778;28;20040;-52
2023/03/07 00:38:31;;;;;;;21.95;9.10;;;1.50;99.90;;;;;;5064113;28;20127;-52
2023/03/07 00:41:07;;;;;;;29.33;9.80;;;1.40;99.90;;;;;;5071246;28;20037;-54
2023/03/07 00:43:34;;;;;;;23.65;9.43;;;1.40;99.90;;;;;;5070839;28;20523;-51
2023/03/07 00:46:01;;;;;;;;;;;1.40;99.90;;;;;;5060971;28;20524;-51
2023/03/07 00:48:29;;;;;;;28.80;9.75;;;1.40;99.90;;;;;;5033013;28;19932;-51
2023/03/07 00:50:55;;;;;;;25.45;9.35;;;1.40;99.90;;;;;;5067950;28;20047;-51
2023/03/07 00:53:24;;;;;;;24.83;9.55;;;1.30;99.90;;;;;;5053171;28;20114;-51
2023/03/07 00:56:08;;;;;;;25.80;10.55;;;1.20;99.90;;;;;;5054193;28;20188;-52
2023/03/07 00:58:35;;;;;;;24.80;9.38;;;1.10;99.90;;;;;;5060765;28;20056;-51
2023/03/07 01:01:04;;;;;;;26.50;10.43;;;1.10;99.90;;;;;;5033233;28;20048;-52
2023/03/07 01:03:32;;;;;;;25.83;10.05;;;1.10;99.90;;;;;;5033562;28;20045;-52
2023/03/07 01:06:07;;;;;;;26.05;10.23;;;1.10;99.90;;;;;;5049573;28;20079;-50
2023/03/07 01:08:35;;;;;;;32.15;9.60;;;1.10;99.90;;;;;;5062541;28;20045;-52
2023/03/07 01:11:03;;;;;;;;;;;1.00;99.90;;;;;;5063563;28;20511;-54
2023/03/07 01:13:30;;;;;;;28.17;9.23;;;1.00;99.90;;;;;;5032948;28;20015;-52
2023/03/07 01:16:31;;;;;;;28.67;9.30;;;0.90;99.90;;;;;;5031857;28;20502;-53
2023/03/07 01:19:01;;;;;;;29.15;10.32;;;0.90;99.90;;;;;;5009937;28;20103;-50
2023/03/07 01:21:36;;;;;;;23.85;9.45;;;0.80;99.90;;;;;;5058763;28;20043;-53
2023/03/07 01:24:04;;;;;;;24.73;10.02;;;0.80;99.90;;;;;;5051231;28;20041;-52
2023/03/07 01:26:33;;;;;;;21.70;9.00;;;0.70;99.90;;;;;;5053921;28;20445;-52
2023/03/07 01:29:02;;;;;;;24.27;9.27;;;0.70;99.90;;;;;;5056305;28;20082;-52
2023/03/07 01:31:32;;;;;;;25.20;9.23;;;0.60;99.90;;;;;;5056434;28;20029;-54
2023/03/07 01:34:01;;;;;;;21.77;8.23;;;0.70;99.90;;;;;;5051826;28;20044;-55
2023/03/07 01:36:32;;;;;;;22.10;8.38;;;0.70;99.90;;;;;;5041314;28;20120;-51
2023/03/07 01:39:09;;;;;;;22.00;8.70;;;0.70;99.90;;;;;;5050820;28;20102;-52
2023/03/07 01:41:38;;;;;;;18.85;8.55;;;0.80;99.90;;;;;;5051089;28;20047;-52
2023/03/07 01:44:20;;;;;;;25.50;8.50;;;0.80;99.90;;;;;;5051099;28;20087;-51
2023/03/07 01:46:48;;;;;;;21.63;8.40;;;0.80;99.90;;;;;;5045664;28;20041;-53
2023/03/07 01:49:24;;;;;;;26.90;9.27;;;0.80;99.90;;;;;;5060146;28;20033;-55
2023/03/07 01:52:21;;;;;;;19.42;8.50;;;0.80;99.90;;;;;;5050095;28;20043;-54
2023/03/07 01:54:57;;;;;;;21.83;8.77;;;0.80;99.90;;;;;;5052776;28;20051;-52
2023/03/07 01:57:31;;;;;;;23.70;8.57;;;0.80;99.90;;;;;;5060713;28;20125;-51
2023/03/07 02:00:04;;;;;;;24.65;9.35;;;0.70;99.90;;;;;;5053724;28;20309;-52
2023/03/07 02:02:42;;;;;;;23.48;8.68;;;0.60;99.90;;;;;;5053098;28;20066;-52
2023/03/07 02:05:19;;;;;;;21.65;9.13;;;0.50;99.90;;;;;;5057507;28;20056;-50
2023/03/07 02:07:48;;;;;;;21.90;9.25;;;0.50;99.90;;;;;;5053295;28;20497;-50
2023/03/07 02:10:21;;;;;;;20.88;8.50;;;0.50;99.90;;;;;;5035140;28;20045;-52
2023/03/07 02:12:50;;;;;;;20.98;8.20;;;0.50;99.90;;;;;;5054413;28;20071;-51
2023/03/07 02:15:17;;;;;;;23.55;8.90;;;0.60;99.90;;;;;;5054821;28;20083;-51
2023/03/07 02:17:45;;;;;;;22.40;8.30;;;0.70;99.90;;;;;;5053086;28;20037;-53
2023/03/07 02:20:19;;;;;;;20.35;8.52;;;0.70;99.90;;;;;;5036134;28;20041;-51
2023/03/07 02:22:48;;;;;;;25.83;8.60;;;0.60;99.90;;;;;;5054473;28;20041;-54
2023/03/07 02:25:55;;;;;;;23.48;8.20;;;0.70;99.90;;;;;;5055591;28;20044;-51
2023/03/07 02:28:23;;;;;;;24.08;8.57;;;0.60;99.90;;;;;;5044275;28;20106;-52
2023/03/07 02:31:08;;;;;;;;;;;0.60;99.90;;;;;;5058124;28;20041;-51
2023/03/07 02:33:37;;;;;;;25.38;7.85;;;0.50;99.90;;;;;;5035976;28;19928;-52
2023/03/07 02:36:14;;;;;;;24.90;8.95;;;0.60;99.90;;;;;;5057890;28;20095;-51
2023/03/07 02:38:51;;;;;;;20.55;7.82;;;0.60;99.90;;;;;;5048082;28;20064;-51
2023/03/07 02:41:22;;;;;;;20.38;8.55;;;0.60;99.90;;;;;;5035312;28;20045;-51
2023/03/07 02:43:49;;;;;;;23.40;8.65;;;0.60;99.90;;;;;;5043156;28;20566;-53
2023/03/07 02:46:16;;;;;;;19.38;7.88;;;0.70;99.90;;;;;;5064200;28;20569;-52
2023/03/07 02:48:43;;;;;;;19.55;8.13;;;0.70;99.90;;;;;;5058105;28;20037;-54
2023/03/07 02:51:10;;;;;;;18.58;8.38;;;0.70;99.90;;;;;;5050998;28;20048;-52
2023/03/07 02:53:38;;;;;;;24.27;7.78;;;0.60;99.90;;;;;;5035863;28;20099;-53
2023/03/07 02:56:05;;;;;;;;;;;0.60;99.90;;;;;;5048605;28;20040;-51
2023/03/07 02:58:32;;;;;;;22.80;7.75;;;0.60;99.90;;;;;;5049355;28;19920;-51
2023/03/07 03:00:59;;;;;;;20.65;7.70;;;0.50;99.90;;;;;;5090411;22;20056;-58
2023/03/07 03:03:26;;;;;;;22.00;7.88;;;0.50;99.90;;;;;;5070363;28;20036;-58
2023/03/07 03:05:53;;;;;;;18.27;6.00;;;0.40;99.90;;;;;;5084833;28;20082;-58
2023/03/07 03:08:19;;;;;;;14.98;5.60;;;0.40;99.90;;;;;;5074260;28;20097;-59
2023/03/07 03:10:54;;;;;;;22.40;8.23;;;0.40;99.90;;;;;;5080265;28;20569;-58
2023/03/07 03:13:23;;;;;;;20.83;8.23;;;0.40;99.90;;;;;;5039562;28;20050;-57
2023/03/07 03:15:57;;;;;;;22.13;7.60;;;0.30;99.90;;;;;;5073331;28;20055;-57
2023/03/07 03:18:27;;;;;;;20.88;8.20;;;0.30;99.90;;;;;;5066611;28;20056;-56
2023/03/07 03:20:53;;;;;;;26.98;8.60;;;0.30;99.90;;;;;;5053330;28;20048;-58
2023/03/07 03:23:20;;;;;;;13.70;5.50;;;0.30;99.90;;;;;;5052531;28;20060;-57
2023/03/07 03:25:58;;;;;;;23.00;8.38;;;0.20;99.90;;;;;;5035585;28;20045;-56
2023/03/07 03:28:28;;;;;;;23.23;8.90;;;0.30;99.90;;;;;;5042459;28;20040;-57
2023/03/07 03:31:04;;;;;;;22.42;9.07;;;0.30;99.90;;;;;;5040388;28;20063;-58
2023/03/07 03:33:32;;;;;;;25.08;8.02;;;0.20;99.90;;;;;;5041118;28;20148;-58
2023/03/07 03:36:04;;;;;;;23.63;9.52;;;0.20;99.90;;;;;;5035088;28;20485;-57
2023/03/07 03:38:32;;;;;;;25.42;8.63;;;0.30;99.90;;;;;;5034348;28;20160;-57
2023/03/07 03:41:03;;;;;;;22.40;9.35;;;0.30;99.90;;;;;;5051797;28;20121;-57
2023/03/07 03:43:31;;;;;;;20.23;8.48;;;0.30;99.90;;;;;;5034819;28;20139;-57
2023/03/07 03:45:58;;;;;;;23.60;8.73;;;0.40;99.90;;;;;;5036094;28;20128;-58
2023/03/07 03:48:27;;;;;;;19.30;7.43;;;0.30;99.90;;;;;;5054182;28;20040;-58
2023/03/07 03:51:00;;;;;;;;;;;0.40;99.90;;;;;;5054945;28;20052;-57
2023/03/07 03:53:27;;;;;;;22.75;8.55;;;0.40;99.90;;;;;;5053888;28;19927;-56
2023/03/07 03:56:03;;;;;;;20.38;8.02;;;0.40;99.90;;;;;;5052766;28;20090;-58
2023/03/07 03:58:31;;;;;;;19.10;7.88;;;0.40;99.90;;;;;;5034011;28;20047;-58
2023/03/07 04:00:59;;;;;;;;;;;0.40;99.90;;;;;;5034812;28;20045;-57
2023/03/07 04:03:26;;;;;;;20.48;8.77;;;0.50;99.90;;;;;;5034567;28;19925;-57
2023/03/07 04:05:53;;;;;;;22.17;8.60;;;0.50;99.90;;;;;;5038115;28;20040;-58
2023/03/07 04:08:21;;;;;;;20.75;8.77;;;0.50;99.90;;;;;;5048873;28;20052;-58
2023/03/07 04:10:47;;;;;;;18.75;8.52;;;0.50;99.90;;;;;;5038671;28;20037;-57
2023/03/07 04:13:14;;;;;;;18.33;6.43;;;0.40;99.90;;;;;;5053094;28;20504;-58
2023/03/07 04:15:41;;;;;;;20.55;6.28;;;0.40;99.90;;;;;;5071556;28;20335;-56
2023/03/07 04:18:08;;;;;;;21.13;9.02;;;0.30;99.90;;;;;;5053383;28;20135;-57
2023/03/07 04:20:35;;;;;;;17.08;6.20;;;0.30;99.90;;;;;;5050322;28;20086;-58
2023/03/07 04:23:02;;;;;;;24.88;8.88;;;0.30;99.90;;;;;;5061555;28;20045;-58
2023/03/07 04:25:28;;;;;;;21.70;8.25;;;0.30;99.90;;;;;;5051368;28;20040;-58
2023/03/07 04:27:55;;;;;;;23.25;8.57;;;0.30;99.90;;;;;;5043558;28;20076;-57
2023/03/07 04:30:22;;;;;;;19.05;7.90;;;0.30;99.90;;;;;;5049830;28;20953;-58
2023/03/07 04:32:49;;;;;;;20.20;7.88;;;0.30;99.90;;;;;;5054269;28;20455;-57
2023/03/07 04:35:16;;;;;;;22.35;8.85;;;0.30;99.90;;;;;;5051838;28;20056;-57
2023/03/07 04:37:43;;;;;;;19.33;7.05;;;0.30;99.90;;;;;;5047108;28;20472;-58
2023/03/07 04:40:10;;;;;;;24.33;8.73;;;0.40;99.90;;;;;;5044490;28;20049;-58
2023/03/07 04:42:37;;;;;;;22.40;7.97;;;0.40;99.90;;;;;;5040202;28;20045;-57
2023/03/07 04:45:05;;;;;;;20.10;7.90;;;0.50;99.90;;;;;;5048084;28;20041;-57
2023/03/07 04:47:31;;;;;;;20.58;8.13;;;0.50;99.90;;;;;;5048288;28;20440;-58
2023/03/07 04:49:58;;;;;;;19.30;8.55;;;0.50;99.90;;;;;;5050225;28;20436;-56
2023/03/07 04:52:25;;;;;;;27.35;9.65;;;0.40;99.90;;;;;;5045330;28;20458;-57
2023/03/07 04:54:53;;;;;;;20.42;8.45;;;0.40;99.90;;;;;;5045933;28;20056;-56
2023/03/07 04:57:21;;;;;;;;;;;0.40;99.90;;;;;;5044345;28;20045;-58
2023/03/07 04:59:47;;;;;;;25.27;8.38;;;0.40;99.90;;;;;;5070613;28;19924;-57
2023/03/07 05:02:14;;;;;;;20.33;8.73;;;0.40;99.90;;;;;;5038648;28;20545;-57
2023/03/07 05:04:41;;;;;;;;;;;0.30;99.90;;;;;;5045806;28;20051;-58
2023/03/07 05:07:09;;;;;;;19.45;7.35;;;0.30;99.90;;;;;;5053287;28;19920;-57
2023/03/07 05:09:35;;;;;;;24.45;8.20;;;0.30;99.90;;;;;;5052572;28;20048;-58
2023/03/07 05:12:03;;;;;;;;;;;0.30;99.90;;;;;;5053534;28;20135;-57
2023/03/07 05:14:30;;;;;;;28.15;9.07;;;0.30;99.90;;;;;;5047771;28;19951;-57
2023/03/07 05:16:56;;;;;;;22.63;9.30;;;0.20;99.90;;;;;;5058129;28;20033;-57
2023/03/07 05:19:23;;;;;;;29.73;9.43;;;0.20;99.90;;;;;;5040445;28;20079;-57
2023/03/07 05:21:50;;;;;;;19.48;8.40;;;-0.30;99.90;;;;;;5048868;28;20047;-56
2023/03/07 05:24:17;;;;;;;28.08;9.60;;;0.20;99.90;;;;;;5036174;28;20044;-57
2023/03/07 05:26:44;;;;;;;;;;;0.30;99.90;;;;;;5044138;28;20058;-57
2023/03/07 05:29:11;;;;;;;21.73;9.35;;;0.30;99.90;;;;;;5060957;28;19920;-56
2023/03/07 05:31:37;;;;;;;36.80;11.35;;;0.30;99.90;;;;;;5065336;28;20028;-56
2023/03/07 05:34:07;;;;;;;32.97;12.75;;;0.40;99.90;;;;;;5047402;28;20056;-57
2023/03/07 05:36:34;;;;;;;27.55;11.32;;;0.40;99.90;;;;;;5049848;28;20041;-56
2023/03/07 05:39:03;;;;;;;30.63;10.93;;;0.40;99.90;;;;;;5054924;28;20055;-57
2023/03/07 05:41:30;;;;;;;22.92;9.68;;;0.50;99.90;;;;;;5051722;28;20048;-57
2023/03/07 05:43:58;;;;;;;25.77;9.85;;;0.40;99.90;;;;;;5052873;28;20554;-55
2023/03/07 05:46:25;;;;;;;28.40;10.30;;;0.40;99.90;;;;;;5072374;28;20071;-58
2023/03/07 05:48:52;;;;;;;29.20;10.75;;;0.40;99.90;;;;;;5045992;28;20075;-58
2023/03/07 05:51:18;;;;;;;33.08;11.15;;;0.40;99.90;;;;;;5044375;28;20551;-57
2023/03/07 05:53:45;;;;;;;33.25;10.57;;;0.40;99.90;;;;;;5042937;28;20381;-55
2023/03/07 05:56:13;;;;;;;25.35;10.93;;;0.30;99.90;;;;;;5055347;28;20459;-58
2023/03/07 05:58:40;;;;;;;30.17;11.50;;;0.30;99.90;;;;;;5055570;28;20040;-56
2023/03/07 06:01:07;;;;;;;33.08;10.43;;;0.30;99.90;;;;;;5051266;28;20068;-57
2023/03/07 06:03:34;;;;;;;26.55;10.52;;;0.20;99.90;;;;;;5035864;28;20037;-57
2023/03/07 06:06:02;;;;;;;22.48;9.68;;;0.20;99.90;;;;;;5054487;28;20044;-57
2023/03/07 06:08:28;;;;;;;29.98;9.95;;;0.10;99.90;;;;;;5035705;28;20489;-58
2023/03/07 06:10:55;;;;;;;26.23;9.50;;;0.00;99.90;;;;;;5034728;28;20053;-58
2023/03/07 06:13:24;;;;;;;26.63;10.95;;;-0.10;99.90;;;;;;5035697;28;20045;-58
2023/03/07 06:15:51;;;;;;;;;;;-0.10;99.90;;;;;;5059497;28;20037;-58
2023/03/07 06:18:20;;;;;;;27.70;9.65;;;0.00;99.90;;;;;;5048170;28;19935;-58
2023/03/07 06:20:58;;;;;;;27.83;10.50;;;0.00;99.90;;;;;;5037231;28;20045;-58
2023/03/07 06:23:30;;;;;;;29.80;11.35;;;0.10;99.90;;;;;;5045106;28;20068;-56
2023/03/07 06:25:58;;;;;;;32.95;10.77;;;0.20;99.90;;;;;;5047363;28;20037;-58
2023/03/07 06:28:25;;;;;;;31.83;10.32;;;0.20;99.90;;;;;;5055439;28;20102;-57
2023/03/07 06:30:52;;;;;;;;;;;0.20;99.90;;;;;;5073560;28;20449;-56
2023/03/07 06:33:19;;;;;;;31.77;12.02;;;0.20;99.90;;;;;;5055452;28;19921;-58
2023/03/07 06:35:46;;;;;;;36.03;13.55;;;0.30;99.90;;;;;;5035490;28;20057;-58
2023/03/07 06:38:14;;;;;;;31.55;12.38;;;0.30;99.90;;;;;;5051959;28;20040;-58
2023/03/07 06:40:42;;;;;;;28.88;11.93;;;0.40;99.90;;;;;;5035170;28;20082;-57
2023/03/07 06:43:11;;;;;;;30.20;13.70;;;0.40;99.90;;;;;;5035705;28;20045;-58
2023/03/07 06:45:38;;;;;;;36.03;13.40;;;0.50;99.90;;;;;;5036021;28;20045;-57
2023/03/07 06:48:06;;;;;;;36.40;14.77;;;0.50;99.90;;;;;;5035441;28;20053;-58
2023/03/07 06:50:33;;;;;;;42.53;15.48;;;0.60;99.90;;;;;;5035347;28;20048;-57
2023/03/07 06:53:03;;;;;;;33.13;13.52;;;0.70;99.90;;;;;;5036023;28;20052;-56
2023/03/07 06:55:29;;;;;;;34.35;11.43;;;0.80;99.90;;;;;;5035121;28;20059;-57
2023/03/07 06:57:56;;;;;;;21.73;8.35;;;0.80;99.90;;;;;;5053670;28;20064;-56
2023/03/07 07:00:23;;;;;;;32.90;10.95;;;0.80;99.90;;;;;;5052665;28;20448;-54
2023/03/07 07:02:50;;;;;;;26.98;9.95;;;1.00;99.90;;;;;;5042274;28;20048;-56
2023/03/07 07:05:17;;;;;;;30.88;11.07;;;1.10;99.90;;;;;;5043880;28;20037;-58
2023/03/07 07:07:44;;;;;;;26.10;12.05;;;1.40;99.90;;;;;;5035548;28;20132;-56
2023/03/07 07:10:12;;;;;;;22.58;9.85;;;1.60;99.90;;;;;;5053021;28;20037;-57
2023/03/07 07:12:38;;;;;;;;;;;1.70;99.90;;;;;;5044426;28;20047;-58
2023/03/07 07:15:06;;;;;;;30.55;11.68;;;1.90;99.90;;;;;;5063418;28;20006;-58
2023/03/07 07:17:42;;;;;;;32.97;12.88;;;2.00;99.90;;;;;;5055307;28;20044;-58
2023/03/07 07:20:10;;;;;;;33.67;13.00;;;2.00;99.90;;;;;;5051840;28;20390;-58
2023/03/07 07:22:39;;;;;;;38.00;12.80;;;2.00;99.90;;;;;;5049836;28;20067;-57
2023/03/07 07:25:05;;;;;;;30.88;13.90;;;2.10;99.90;;;;;;5054764;28;20098;-58
2023/03/07 07:27:32;;;;;;;34.90;14.90;;;2.10;99.90;;;;;;5073255;28;20051;-57
2023/03/07 07:30:00;;;;;;;37.33;15.00;;;2.20;99.90;;;;;;5053413;28;20051;-58
2023/03/07 07:32:26;;;;;;;30.67;11.43;;;2.20;99.90;;;;;;5072755;28;20045;-58
2023/03/07 07:34:54;;;;;;;34.60;14.98;;;2.30;99.90;;;;;;5072354;28;20033;-57
2023/03/07 07:37:21;;;;;;;;;;;2.50;99.90;;;;;;5053722;28;20071;-57
2023/03/07 07:39:48;;;;;;;32.30;13.98;;;2.50;99.90;;;;;;5050423;28;20362;-57
2023/03/07 07:42:15;;;;;;;37.28;15.02;;;2.50;99.90;;;;;;5034435;28;20037;-58
2023/03/07 07:44:59;;;;;;;39.00;14.95;;;2.50;99.90;;;;;;5035086;28;20127;-58
2023/03/07 07:47:26;;;;;;;37.33;14.50;;;2.60;99.90;;;;;;5054552;28;20109;-58
2023/03/07 07:49:53;;;;;;;44.05;16.30;;;2.70;99.90;;;;;;5049883;28;20052;-58
2023/03/07 07:52:19;;;;;;;39.13;15.27;;;2.80;99.90;;;;;;5052459;28;20041;-58
2023/03/07 07:54:46;;;;;;;42.58;15.57;;;2.90;99.90;;;;;;5033645;28;20075;-58
2023/03/07 07:57:14;;;;;;;37.33;14.90;;;3.00;99.90;;;;;;5034687;28;20237;-59
2023/03/07 07:59:41;;;;;;;;;;;3.20;99.90;;;;;;5042698;28;20037;-58
2023/03/07 08:02:12;;;;;;;37.70;13.93;;;3.40;99.90;;;;;;5034180;28;19921;-58
2023/03/07 08:04:39;;;;;;;38.83;14.95;;;3.60;99.90;;;;;;5051817;28;20473;-58
2023/03/07 08:07:06;;;;;;;33.50;13.98;;;3.60;99.90;;;;;;5052050;28;20037;-57
2023/03/07 08:09:34;;;;;;;;;;;3.60;99.90;;;;;;5061154;28;20041;-58
2023/03/07 08:12:01;;;;;;;38.42;13.30;;;3.80;99.90;;;;;;5059089;28;19978;-57
2023/03/07 08:14:27;;;;;;;35.20;14.32;;;3.60;99.90;;;;;;5052060;28;20068;-58
2023/03/07 08:16:54;;;;;;;32.65;14.25;;;3.50;99.90;;;;;;5051779;28;20094;-56
2023/03/07 08:19:21;;;;;;;41.55;14.63;;;3.50;99.90;;;;;;5054234;28;20090;-58
2023/03/07 08:21:47;;;;;;;36.55;14.98;;;3.60;99.90;;;;;;5055404;28;20124;-56
2023/03/07 08:24:14;;;;;;;42.03;15.48;;;3.70;99.90;;;;;;5051754;28;20505;-58
2023/03/07 08:26:41;;;;;;;25.55;10.95;;;3.90;99.90;;;;;;5070120;28;20036;-58
2023/03/07 08:29:07;;;;;;;29.23;13.10;;;4.10;99.90;;;;;;5062594;28;20086;-58
2023/03/07 08:31:34;;;;;;;38.03;13.73;;;4.10;99.90;;;;;;5047452;28;20052;-58
2023/03/07 08:34:01;;;;;;;36.63;14.13;;;4.10;99.90;;;;;;5059771;28;20053;-58
2023/03/07 08:36:28;;;;;;;37.85;13.52;;;4.20;99.90;;;;;;5057472;28;20102;-58
2023/03/07 08:38:54;;;;;;;35.65;14.15;;;4.40;99.90;;;;;;5057330;28;20099;-57
2023/03/07 08:41:22;;;;;;;31.75;13.23;;;4.50;99.90;;;;;;5051595;28;20045;-58
2023/03/07 08:43:48;;;;;;;26.48;12.32;;;4.50;99.90;;;;;;5051000;28;20033;-57
2023/03/07 08:46:15;;;;;;;23.40;10.18;;;4.50;99.90;;;;;;5051577;28;20456;-58
2023/03/07 08:48:42;;;;;;;34.63;11.55;;;4.40;99.90;;;;;;5056339;28;20047;-58
2023/03/07 08:51:13;;;;;;;31.20;11.50;;;4.30;99.90;;;;;;5051358;28;20488;-58
2023/03/07 08:53:45;;;;;;;24.85;10.98;;;4.30;99.90;;;;;;5051369;28;20477;-58
2023/03/07 08:56:14;;;;;;;26.65;11.02;;;4.30;99.90;;;;;;5062554;28;20688;-58
2023/03/07 08:58:41;;;;;;;30.55;11.35;;;4.60;99.90;;;;;;5061975;28;20029;-58
2023/03/07 09:04:07;;;;;;;29.75;11.35;;;5.10;99.90;;;;;;5061979;28;20056;-52
2023/03/07 09:06:34;;;;;;;32.03;11.75;;;4.90;99.90;;;;;;5048060;28;20448;-53
2023/03/07 09:09:01;;;;;;;23.80;8.68;;;5.00;99.90;;;;;;5050867;28;20102;-52
2023/03/07 09:11:28;;;;;;;32.30;12.00;;;5.10;99.90;;;;;;5061320;28;20044;-52
2023/03/07 09:13:55;;;;;;;32.90;12.80;;;5.20;99.90;;;;;;5071210;28;20525;-55
2023/03/07 09:16:22;;;;;;;26.20;11.70;;;5.30;99.90;;;;;;5071682;28;20102;-51
2023/03/07 09:18:49;;;;;;;;;;;5.30;99.90;;;;;;5070508;28;20043;-54
2023/03/07 09:21:16;;;;;;;34.13;12.02;;;5.30;99.90;;;;;;5070923;28;19921;-54
2023/03/07 09:23:43;;;;;;;38.42;12.27;;;5.40;99.90;;;;;;5071199;28;20090;-52
2023/03/07 09:26:09;;;;;;;31.92;11.65;;;5.50;99.90;;;;;;5071257;28;20102;-52
2023/03/07 09:28:36;;;;;;;27.20;11.45;;;5.60;99.90;;;;;;5069807;28;20825;-54
2023/03/07 09:31:11;;;;;;;30.08;11.27;;;5.80;99.90;;;;;;5069548;28;20040;-51
2023/03/07 09:33:39;;;;;;;29.10;12.27;;;6.00;99.90;;;;;;5071139;28;20524;-52
2023/03/07 09:36:08;;;;;;;28.05;11.10;;;6.00;99.90;;;;;;5068177;28;20052;-52
2023/03/07 09:38:35;;;;;;;30.00;11.77;;;5.90;99.90;;;;;;5070264;28;20736;-51
2023/03/07 09:41:26;;;;;;;28.25;11.82;;;6.00;99.90;;;;;;5069678;28;20094;-52
2023/03/07 09:44:07;;;;;;;33.17;12.43;;;6.10;99.90;;;;;;5063318;28;20107;-55
2023/03/07 09:47:27;;;;;;;25.65;11.15;;;6.20;99.90;;;;;;5047913;28;20073;-54
2023/03/07 09:49:54;;;;;;;27.70;11.90;;;6.20;99.90;;;;;;5070418;28;20041;-52
2023/03/07 09:52:32;;;;;;;32.10;11.40;;;6.20;99.90;;;;;;5069857;28;20562;-55
2023/03/07 09:55:00;;;;;;;;;;;6.30;99.90;;;;;;5069791;28;20517;-51
2023/03/07 09:57:33;;;;;;;25.67;11.30;;;6.50;99.90;;;;;;5070185;28;19921;-55
2023/03/07 10:00:06;;;;;;;27.98;10.85;;;6.60;99.90;;;;;;5070288;28;20048;-51
2023/03/07 10:02:51;;;;;;;32.22;11.35;;;6.70;99.90;;;;;;5068062;28;20037;-53
2023/03/07 10:05:35;;;;;;;31.58;11.65;;;6.90;99.90;;;;;;5054364;28;20492;-51
2023/03/07 10:08:03;;;;;;;20.52;10.30;;;7.00;99.90;;;;;;5052593;28;20037;-54
2023/03/07 10:10:37;;;;;;;28.63;11.52;;;7.00;99.90;;;;;;5069265;28;20036;-52
2023/03/07 10:13:14;;;;;;;25.50;10.40;;;7.10;99.90;;;;;;5068716;28;20044;-52
2023/03/07 10:15:46;;;;;;;21.10;10.90;;;7.20;99.90;;;;;;5070354;28;20048;-52
2023/03/07 10:18:23;;;;;;;29.15;11.48;;;7.20;99.90;;;;;;5072454;28;20047;-51
2023/03/07 10:20:58;;;;;;;28.42;11.40;;;7.30;99.90;;;;;;5073082;28;20049;-51
2023/03/07 10:24:07;;;;;;;28.23;12.35;;;7.30;99.90;;;;;;5074297;28;20095;-54
2023/03/07 10:26:47;;;;;;;31.88;11.63;;;7.30;99.90;;;;;;5074140;28;20044;-52
2023/03/07 10:29:18;;;;;;;23.25;10.30;;;7.50;99.90;;;;;;5072241;28;20036;-52
2023/03/07 10:31:49;;;;;;;23.10;11.27;;;7.50;99.90;;;;;;5071096;28;20462;-52
2023/03/07 10:34:27;;;;;;;29.38;10.75;;;7.70;99.90;;;;;;5055489;28;20496;-53
2023/03/07 10:37:11;;;;;;;30.23;10.77;;;7.80;99.90;;;;;;5073374;28;20105;-55
2023/03/07 10:39:49;;;;;;;26.20;11.07;;;7.80;99.00;;;;;;5072300;28;20400;-51
2023/03/07 10:42:16;;;;;;;;;;;7.70;98.30;;;;;;5074345;28;20090;-57
2023/03/07 10:44:44;;;;;;;20.88;9.95;;;7.80;98.20;;;;;;5073857;28;20384;-51
2023/03/07 10:47:24;;;;;;;26.17;11.23;;;7.90;97.60;;;;;;5074075;28;20040;-52
2023/03/07 10:49:56;;;;;;;28.67;11.95;;;8.00;98.50;;;;;;5070677;28;20436;-52
2023/03/07 10:52:45;;;;;;;30.73;11.23;;;8.10;97.40;;;;;;5073950;28;20044;-51
2023/03/07 10:55:33;;;;;;;30.95;12.30;;;8.10;98.30;;;;;;5073582;28;20071;-53
2023/03/07 10:58:20;;;;;;;28.42;11.32;;;8.10;98.20;;;;;;5072011;28;20054;-53
2023/03/07 11:01:02;;;;;;;21.20;10.13;;;8.20;97.20;;;;;;5063115;28;20045;-54
2023/03/07 11:03:40;;;;;;;23.98;10.65;;;8.20;96.10;;;;;;5055415;28;20048;-55
2023/03/07 11:06:48;;;;;;;23.05;11.38;;;8.20;95.90;;;;;;5073544;28;20041;-52
2023/03/07 11:09:26;;;;;;;23.38;10.55;;;8.00;96.70;;;;;;5052443;28;20451;-52
2023/03/07 11:11:55;;;;;;;25.92;10.70;;;8.10;96.10;;;;;;5069711;28;20041;-51
2023/03/07 11:14:23;;;;;;;27.33;11.15;;;8.10;96.00;;;;;;5073183;28;20102;-51
2023/03/07 11:16:54;;;;;;;30.63;11.93;;;8.30;96.50;;;;;;5073226;28;20082;-55
2023/03/07 11:19:42;;;;;;;27.25;11.98;;;8.30;96.70;;;;;;5070401;28;20044;-52
2023/03/07 11:22:25;;;;;;;27.70;11.05;;;8.30;96.70;;;;;;5070398;28;20040;-53
2023/03/07 11:25:13;;;;;;;25.35;11.30;;;8.30;95.70;;;;;;5071631;28;20044;-52
2023/03/07 11:27:50;;;;;;;24.92;10.77;;;8.20;95.90;;;;;;5073167;28;20725;-50
2023/03/07 11:30:30;;;;;;;29.25;10.70;;;8.20;97.30;;;;;;5069937;28;20104;-53
2023/03/07 11:33:20;;;;;;;24.27;11.57;;;8.10;95.50;;;;;;5072855;28;20049;-51
2023/03/07 11:36:02;;;;;;;32.60;11.93;;;8.10;96.00;;;;;;5071042;28;20488;-53
2023/03/07 11:38:47;;;;;;;24.80;10.93;;;8.10;96.10;;;;;;5065733;28;20316;-56
2023/03/07 11:41:39;;;;;;;25.60;11.35;;;8.20;96.00;;;;;;5072591;28;20052;-56
2023/03/07 11:44:35;;;;;;;25.17;11.95;;;8.40;95.90;;;;;;5071620;28;20094;-50
2023/03/07 11:47:39;;;;;;;23.73;10.57;;;8.40;95.40;;;;;;5071704;28;20076;-51
2023/03/07 11:50:22;;;;;;;24.55;10.75;;;8.30;95.60;;;;;;5072085;28;20068;-52
2023/03/07 11:53:27;;;;;;;24.58;10.95;;;8.40;96.70;;;;;;5072394;28;20052;-52
2023/03/07 11:56:12;;;;;;;22.27;10.68;;;8.50;96.40;;;;;;5070790;28;20102;-51
2023/03/07 11:59:11;;;;;;;27.05;12.07;;;8.50;94.70;;;;;;5071895;28;20098;-54
2023/03/07 12:01:49;;;;;;;31.38;11.93;;;8.60;95.20;;;;;;5071879;28;20420;-52
2023/03/07 12:04:55;;;;;;;25.85;11.43;;;8.60;95.10;;;;;;5052161;28;20097;-52
2023/03/07 12:07:49;;;;;;;26.20;11.30;;;8.60;95.40;;;;;;5072365;28;20040;-53
2023/03/07 12:10:35;;;;;;;28.63;11.60;;;8.60;95.10;;;;;;5071596;28;20044;-54
2023/03/07 12:13:26;;;;;;;28.00;11.68;;;8.60;96.50;;;;;;5071347;28;20400;-52
2023/03/07 12:16:01;;;;;;;26.70;11.60;;;8.60;95.50;;;;;;5071984;28;20041;-56
2023/03/07 12:19:03;;;;;;;28.73;12.00;;;8.70;94.80;;;;;;5069816;28;20054;-52
2023/03/07 12:21:41;;;;;;;26.33;11.00;;;8.80;95.10;;;;;;5071628;28;20048;-54
2023/03/07 12:24:36;;;;;;;25.67;11.98;;;8.70;94.50;;;;;;5071921;28;20090;-52
2023/03/07 12:27:14;;;;;;;29.33;12.10;;;8.80;95.00;;;;;;5065368;28;20060;-54
2023/03/07 12:29:52;;;;;;;24.00;11.52;;;8.80;94.10;;;;;;5069988;28;20543;-52
2023/03/07 12:32:25;;;;;;;32.45;12.93;;;8.70;93.80;;;;;;5054193;28;20044;-52
2023/03/07 12:34:55;;;;;;;28.90;12.23;;;8.70;93.80;;;;;;5071474;28;20404;-52
2023/03/07 12:37:43;;;;;;;27.38;11.80;;;8.80;95.10;;;;;;5069012;28;20484;-54
2023/03/07 12:40:24;;;;;;;24.85;11.23;;;8.80;93.60;;;;;;5070870;28;20040;-54
2023/03/07 12:42:51;;;;;;;26.23;11.95;;;8.90;94.60;;;;;;5070893;28;20048;-53
2023/03/07 12:45:21;;;;;;;24.13;11.93;;;8.90;93.60;;;;;;5069780;28;20048;-51
2023/03/07 12:47:55;;;;;;;23.05;11.48;;;8.80;93.90;;;;;;5071639;28;20102;-54
2023/03/07 12:50:55;;;;;;;26.38;11.63;;;8.80;94.80;;;;;;5070600;28;20074;-55
2023/03/07 12:53:41;;;;;;;36.05;12.27;;;8.90;94.10;;;;;;5071716;28;20475;-53
2023/03/07 12:56:38;;;;;;;27.23;12.50;;;8.90;95.40;;;;;;5070367;28;20463;-52
2023/03/07 12:59:11;;;;;;;29.92;12.70;;;8.90;94.60;;;;;;5070562;28;20076;-51
2023/03/07 13:01:47;;;;;;;25.15;11.05;;;8.90;94.20;;;;;;5071176;28;20044;-51
2023/03/07 13:04:23;;;;;;;25.60;12.35;;;8.90;93.70;;;;;;5070935;28;20094;-53
2023/03/07 13:06:54;;;;;;;29.42;12.27;;;9.00;95.00;;;;;;5069679;28;20102;-51
2023/03/07 13:09:24;;;;;;;22.98;11.23;;;8.90;93.50;;;;;;5070817;28;20492;-51
2023/03/07 13:12:15;;;;;;;23.13;11.63;;;8.80;94.90;;;;;;5071103;28;20040;-52
2023/03/07 13:14:47;;;;;;;28.35;11.68;;;8.80;94.40;;;;;;5069938;28;20415;-54